Time;durP1;ratioP1;P1;durP2;ratioP2;P2;SDS_P1;SDS_P2;PMS_P1;PMS_P2;Temp;Humidity;BMP_temperature;BMP_pressure;BME280_temperature;BME280_humidity;BME280_pressure;Samples;Min_cycle;Max_cycle;Signal;HPM_P1;HPM_P2
2022/11/19 00:03:20;;;;;;;;;;;0.20;99.90;;;;;;12613570;28;20288;-36
2022/11/19 00:09:22;;;;;;;;;;;0.30;99.90;;;;;;12614103;28;19924;-36
2022/11/19 00:15:24;;;;;;;;;;;0.20;99.90;;;;;;12610921;28;19929;-37
2022/11/19 00:21:25;;;;;;;;;;;0.20;99.90;;;;;;12630707;28;20378;-37
2022/11/19 00:27:27;;;;;;;;;;;0.10;99.90;;;;;;12620453;28;20368;-37
2022/11/19 00:33:29;;;;;;;;;;;0.10;99.90;;;;;;12618855;28;20379;-37
2022/11/19 00:39:31;;;;;;;;;;;0.10;99.90;;;;;;12612425;28;20273;-37
2022/11/19 00:45:32;;;;;;;;;;;0.10;99.90;;;;;;12603631;28;20411;-37
2022/11/19 00:51:35;;;;;;;;;;;0.00;99.90;;;;;;12607183;28;20376;-37
2022/11/19 00:57:37;;;;;;;;;;;0.00;99.90;;;;;;12612544;28;19924;-37
2022/11/19 01:03:39;;;;;;;;;;;0.20;99.90;;;;;;12617621;28;20378;-37
2022/11/19 01:09:41;;;;;;;;;;;0.00;99.90;;;;;;12624340;28;19928;-37
2022/11/19 01:15:45;;;;;;;;;;;0.00;99.90;;;;;;12614728;28;19928;-36
2022/11/19 01:21:47;;;;;;;;;;;0.10;99.90;;;;;;12614176;28;20307;-37
2022/11/19 01:27:49;;;;;;;;;;;0.10;99.90;;;;;;12619321;28;19980;-37
2022/11/19 01:33:51;;;;;;;;;;;0.10;99.90;;;;;;12593167;28;19928;-37
2022/11/19 01:39:53;;;;;;;;;;;0.00;99.90;;;;;;12590287;28;20041;-37
2022/11/19 01:45:55;;;;;;;;;;;0.00;99.90;;;;;;12601566;28;19928;-37
2022/11/19 01:51:59;;;;;;;;;;;0.00;99.90;;;;;;12608524;28;19928;-36
2022/11/19 01:58:02;;;;;;;;;;;-0.10;99.90;;;;;;12612443;28;20064;-36
2022/11/19 02:04:05;;;;;;;;;;;-0.10;99.90;;;;;;12616893;28;19931;-37
2022/11/19 02:10:07;;;;;;;;;;;-0.10;99.90;;;;;;12617906;28;20040;-37
2022/11/19 02:16:19;;;;;;;;;;;-0.10;99.90;;;;;;12566507;28;19928;-37
2022/11/19 02:22:40;;;;;;;;;;;-0.10;99.90;;;;;;12608005;28;19939;-37
2022/11/19 02:28:41;;;;;;;;;;;-0.30;99.90;;;;;;12610389;28;19929;-37
2022/11/19 02:34:54;;;;;;;;;;;-0.40;99.90;;;;;;12595226;28;20412;-37
2022/11/19 02:47:37;;;;;;;;;;;-0.50;99.90;;;;;;12617538;28;19986;-36
2022/11/19 02:53:39;;;;;;;;;;;-0.40;99.90;;;;;;12614900;28;19924;-37
2022/11/19 03:06:10;;;;;;;;;;;-0.40;99.90;;;;;;12619131;28;19971;-37
2022/11/19 03:12:23;;;;;;;;;;;-0.40;99.90;;;;;;12636533;28;19946;-37
2022/11/19 03:18:34;;;;;;;;;;;-0.50;99.90;;;;;;12623198;28;19924;-36
2022/11/19 03:24:40;;;;;;;;;;;-0.50;99.90;;;;;;12624051;28;20364;-36
2022/11/19 03:30:44;;;;;;;;;;;-0.50;99.90;;;;;;12622054;28;19928;-37
2022/11/19 03:36:47;;;;;;;;;;;-0.60;99.90;;;;;;12629496;28;20295;-37
2022/11/19 03:42:51;;;;;;;;;;;-0.70;99.90;;;;;;12630018;28;19924;-36
2022/11/19 03:48:53;;;;;;;;;;;-0.70;99.90;;;;;;12623381;28;19924;-37
2022/11/19 03:54:55;;;;;;;;;;;-0.70;99.90;;;;;;12621891;28;19924;-37
2022/11/19 04:00:56;;;;;;;;;;;-0.80;99.90;;;;;;12614752;28;19924;-37
2022/11/19 04:06:58;;;;;;;;;;;-0.90;99.90;;;;;;12625709;28;19939;-37
2022/11/19 04:13:00;;;;;;;;;;;-0.90;99.90;;;;;;12610988;28;20022;-36
2022/11/19 04:19:01;;;;;;;;;;;-1.10;99.90;;;;;;12615128;28;19928;-36
2022/11/19 04:25:03;;;;;;;;;;;-1.10;99.90;;;;;;12616931;28;19925;-37
2022/11/19 04:31:05;;;;;;;;;;;-1.20;99.90;;;;;;12595779;28;19932;-37
2022/11/19 04:37:07;;;;;;;;;;;-1.20;99.90;;;;;;12602165;28;19936;-36
2022/11/19 04:43:08;;;;;;;;;;;-1.20;99.90;;;;;;12598660;28;19924;-37
2022/11/19 04:49:10;;;;;;;;;;;-1.40;99.90;;;;;;12583612;28;19928;-36
2022/11/19 04:55:12;;;;;;;;;;;-1.40;99.90;;;;;;12599042;28;19932;-37
2022/11/19 05:01:14;;;;;;;;;;;-1.40;99.90;;;;;;12595814;28;19924;-36
2022/11/19 05:07:16;;;;;;;;;;;-1.40;99.90;;;;;;12605015;28;19933;-36
2022/11/19 05:13:17;;;;;;;;;;;-1.50;99.90;;;;;;12593121;28;19986;-36
2022/11/19 05:19:19;;;;;;;;;;;-1.60;99.90;;;;;;12603042;28;19924;-37
2022/11/19 05:25:21;;;;;;;;;;;-1.60;99.90;;;;;;12618524;28;20744;-36
2022/11/19 05:31:23;;;;;;;;;;;-1.50;99.90;;;;;;12609220;28;19932;-37
2022/11/19 05:37:25;;;;;;;;;;;-1.60;99.90;;;;;;12594494;28;19925;-36
2022/11/19 05:43:26;;;;;;;;;;;-1.70;99.90;;;;;;12615141;28;19929;-36
2022/11/19 05:49:28;;;;;;;;;;;-1.70;99.90;;;;;;12612634;28;20616;-36
2022/11/19 05:55:30;;;;;;;;;;;-1.60;99.90;;;;;;12609639;28;20292;-37
2022/11/19 06:01:31;;;;;;;;;;;-1.70;99.90;;;;;;12600339;28;19928;-36
2022/11/19 06:07:33;;;;;;;;;;;-1.80;99.90;;;;;;12610299;28;19931;-36
2022/11/19 06:13:35;;;;;;;;;;;-1.90;99.90;;;;;;12602804;28;19936;-37
2022/11/19 06:19:36;;;;;;;;;;;-1.80;99.90;;;;;;12601824;28;19924;-36
2022/11/19 06:25:38;;;;;;;;;;;-1.90;99.90;;;;;;12606935;28;19925;-37
2022/11/19 06:31:40;;;;;;;;;;;-1.90;99.90;;;;;;12607547;28;19932;-37
2022/11/19 06:37:42;;;;;;;;;;;-1.90;99.90;;;;;;12601224;28;19928;-37
2022/11/19 06:43:43;;;;;;;;;;;-1.90;99.90;;;;;;12604096;28;19931;-37
2022/11/19 06:49:45;;;;;;;;;;;-2.10;99.90;;;;;;12624210;28;19924;-37
2022/11/19 06:55:47;;;;;;;;;;;-2.10;99.90;;;;;;12628129;28;20007;-37
2022/11/19 07:01:48;;;;;;;;;;;-2.10;99.90;;;;;;12613907;28;19924;-36
2022/11/19 07:07:50;;;;;;;;;;;-2.10;99.90;;;;;;12626215;28;20333;-36
2022/11/19 07:13:56;;;;;;;;;;;-2.10;99.90;;;;;;12604542;28;19928;-37
2022/11/19 07:19:57;;;;;;;;;;;-2.20;99.90;;;;;;12628471;28;19973;-36
2022/11/19 07:25:59;;;;;;;;;;;-2.20;99.90;;;;;;12615653;28;19944;-37
2022/11/19 07:32:01;;;;;;;;;;;-2.00;99.90;;;;;;12616711;28;19924;-37
2022/11/19 07:38:03;;;;;;;;;;;-2.00;99.90;;;;;;12605127;28;19928;-36
2022/11/19 07:44:05;;;;;;;;;;;-1.90;99.90;;;;;;12609998;28;19932;-37
2022/11/19 07:50:07;;;;;;;;;;;-1.80;99.90;;;;;;12612962;28;19924;-37
2022/11/19 07:56:08;;;;;;;;;;;-1.70;99.90;;;;;;12582568;28;19928;-36
2022/11/19 08:02:10;;;;;;;;;;;-1.60;99.90;;;;;;12600488;28;19924;-37
2022/11/19 08:08:12;;;;;;;;;;;-1.50;99.90;;;;;;12613305;28;19943;-37
2022/11/19 08:14:14;;;;;;;;;;;-1.30;99.90;;;;;;12610738;28;19931;-37
2022/11/19 08:20:16;;;;;;;;;;;-1.20;99.90;;;;;;12607391;28;19931;-36
2022/11/19 08:26:18;;;;;;;;;;;-1.20;99.90;;;;;;12610302;28;20385;-37
2022/11/19 08:32:19;;;;;;;;;;;-1.10;99.90;;;;;;12606668;28;19928;-36
2022/11/19 08:38:21;;;;;;;;;;;-1.10;99.90;;;;;;12540571;28;1789434;-36
2022/11/19 08:44:23;;;;;;;;;;;-1.20;99.90;;;;;;12603007;28;19925;-37
2022/11/19 08:50:25;;;;;;;;;;;-1.10;99.90;;;;;;12619343;28;19932;-37
2022/11/19 08:56:27;;;;;;;;;;;-1.10;99.90;;;;;;12613481;28;19925;-37
2022/11/19 09:02:29;;;;;;;;;;;-0.80;99.90;;;;;;12601509;28;20011;-37
2022/11/19 09:08:31;;;;;;;;;;;-0.60;99.90;;;;;;12616005;28;19928;-37
2022/11/19 09:14:35;;;;;;;;;;;-0.50;99.90;;;;;;12611308;28;19932;-37
2022/11/19 09:20:37;;;;;;;;;;;-0.50;99.90;;;;;;12611848;28;20046;-37
2022/11/19 09:26:39;;;;;;;;;;;-0.30;99.90;;;;;;12609160;28;19924;-37
2022/11/19 09:32:40;;;;;;;;;;;-0.20;99.90;;;;;;12607084;28;19931;-38
2022/11/19 09:38:43;;;;;;;;;;;-0.40;99.90;;;;;;12608353;28;19931;-37
2022/11/19 09:44:44;;;;;;;;;;;-0.20;99.90;;;;;;12601711;28;19932;-37
2022/11/19 09:50:50;;;;;;;;;;;0.20;99.90;;;;;;12610213;28;19924;-37
2022/11/19 09:56:54;;;;;;;;;;;0.20;99.90;;;;;;12608443;28;20342;-37
2022/11/19 10:03:23;;;;;;;;;;;0.20;99.90;;;;;;12602721;28;19931;-37
2022/11/19 10:09:38;;;;;;;;;;;0.50;99.90;;;;;;12613661;28;19924;-37
2022/11/19 10:15:39;;;;;;;;;;;0.90;99.90;;;;;;12612650;28;19931;-37
2022/11/19 10:21:54;;;;;;;;;;;0.90;99.90;;;;;;12601976;28;19931;-37
2022/11/19 10:28:04;;;;;;;;;;;1.50;99.90;;;;;;12604195;28;19947;-37
2022/11/19 10:34:25;;;;;;;;;;;1.50;99.90;;;;;;12607860;28;20384;-37
2022/11/19 10:40:31;;;;;;;;;;;2.10;99.90;;;;;;12611238;28;20387;-38
2022/11/19 10:46:33;;;;;;;;;;;2.70;99.90;;;;;;12587992;28;19935;-39
2022/11/19 10:52:38;;;;;;;;;;;2.70;99.90;;;;;;12612420;28;19977;-39
2022/11/19 10:58:46;;;;;;;;;;;2.70;99.90;;;;;;12603868;28;19928;-39
2022/11/19 11:05:07;;;;;;;;;;;2.80;99.90;;;;;;12600492;28;19981;-39
2022/11/19 11:11:09;;;;;;;;;;;2.90;99.90;;;;;;12621992;28;19924;-37
2022/11/19 11:17:17;;;;;;;;;;;2.70;99.90;;;;;;12600077;28;19928;-37
2022/11/19 11:23:26;;;;;;;;;;;2.70;99.90;;;;;;12606458;28;20406;-37
2022/11/19 11:29:28;;;;;;;;;;;3.30;99.90;;;;;;12602462;28;19936;-37
2022/11/19 11:35:35;;;;;;;;;;;3.10;99.90;;;;;;12616443;28;19924;-37
2022/11/19 11:41:41;;;;;;;;;;;3.10;99.90;;;;;;12601947;28;19929;-37
2022/11/19 11:48:07;;;;;;;;;;;3.20;99.90;;;;;;12599136;28;19935;-37
2022/11/19 11:54:16;;;;;;;;;;;3.30;99.90;;;;;;12617902;28;19931;-37
2022/11/19 12:00:35;;;;;;;;;;;3.50;99.90;;;;;;12586779;28;20372;-39
2022/11/19 12:07:00;;;;;;;;;;;3.10;99.90;;;;;;12613708;28;19928;-39
2022/11/19 12:13:14;;;;;;;;;;;3.00;99.90;;;;;;12607842;28;19931;-39
2022/11/19 12:19:40;;;;;;;;;;;3.10;99.90;;;;;;12612605;28;19931;-39
2022/11/19 12:25:59;;;;;;;;;;;3.10;99.90;;;;;;12603346;28;20028;-38
2022/11/19 12:32:10;;;;;;;;;;;2.90;99.90;;;;;;12626829;28;20371;-38
2022/11/19 12:38:24;;;;;;;;;;;2.80;99.90;;;;;;12610948;28;19935;-39
2022/11/19 12:44:38;;;;;;;;;;;2.80;99.90;;;;;;12607239;28;19931;-39
2022/11/19 12:50:58;;;;;;;;;;;3.00;99.90;;;;;;12617171;28;19924;-39
2022/11/19 12:57:19;;;;;;;;;;;3.20;99.90;;;;;;12623047;28;19924;-39
2022/11/19 13:03:24;;;;;;;;;;;3.30;99.90;;;;;;12621783;28;19931;-39
2022/11/19 13:09:26;;;;;;;;;;;3.70;99.90;;;;;;12612436;28;19924;-39
2022/11/19 13:15:30;;;;;;;;;;;3.10;99.90;;;;;;12611063;28;19928;-40
2022/11/19 13:21:43;;;;;;;;;;;2.80;99.90;;;;;;12602540;28;19928;-39
2022/11/19 13:27:46;;;;;;;;;;;2.50;99.90;;;;;;12612122;28;19925;-38
2022/11/19 13:33:54;;;;;;;;;;;2.20;99.90;;;;;;12603960;28;19982;-43
2022/11/19 13:40:01;;;;;;;;;;;2.30;99.90;;;;;;12617005;28;19931;-39
2022/11/19 13:46:09;;;;;;;;;;;2.10;99.90;;;;;;12613254;28;19954;-38
2022/11/19 13:52:14;;;;;;;;;;;2.20;99.90;;;;;;12621517;28;19931;-39
2022/11/19 13:58:18;;;;;;;;;;;1.80;99.90;;;;;;12607876;28;19932;-39
2022/11/19 14:04:38;;;;;;;;;;;2.00;99.90;;;;;;12610817;28;19928;-39
2022/11/19 14:10:49;;;;;;;;;;;1.90;99.90;;;;;;12613163;28;20276;-39
2022/11/19 14:30:07;;;;;;;;;;;1.30;99.90;;;;;;12590384;28;20008;-39
2022/11/19 14:36:10;;;;;;;;;;;1.30;99.90;;;;;;12603655;28;19935;-39
2022/11/19 14:42:17;;;;;;;;;;;1.50;99.90;;;;;;12613799;28;19924;-39
2022/11/19 14:48:19;;;;;;;;;;;1.30;99.90;;;;;;12607850;28;19924;-39
2022/11/19 14:54:23;;;;;;;;;;;1.10;99.90;;;;;;12613533;28;19928;-38
2022/11/19 15:00:36;;;;;;;;;;;1.10;99.90;;;;;;12605888;28;19982;-39
2022/11/19 15:06:38;;;;;;;;;;;1.00;99.90;;;;;;12618565;28;19925;-39
2022/11/19 15:12:43;;;;;;;;;;;0.80;99.90;;;;;;12610361;28;19936;-38
2022/11/19 15:18:44;;;;;;;;;;;0.70;99.90;;;;;;12615550;28;19925;-38
2022/11/19 15:24:57;;;;;;;;;;;0.90;99.90;;;;;;12613325;28;19924;-39
2022/11/19 15:31:05;;;;;;;;;;;0.80;99.90;;;;;;12612595;28;21061;-38
2022/11/19 15:37:09;;;;;;;;;;;0.40;99.90;;;;;;12617105;28;19924;-38
2022/11/19 15:43:10;;;;;;;;;;;0.40;99.90;;;;;;12620579;28;19924;-38
2022/11/19 15:49:17;;;;;;;;;;;0.20;99.90;;;;;;12614863;28;19931;-38
2022/11/19 15:55:23;;;;;;;;;;;0.20;99.90;;;;;;12613635;28;19928;-38
2022/11/19 16:01:24;;;;;;;;;;;0.10;99.90;;;;;;12621282;28;19928;-38
2022/11/19 16:07:27;;;;;;;;;;;0.20;99.90;;;;;;12630436;28;19932;-38
2022/11/19 16:20:00;;;;;;;;;;;-0.20;99.90;;;;;;12596823;28;19928;-38
2022/11/19 16:26:01;;;;;;;;;;;-0.20;99.90;;;;;;12610311;28;19973;-38
2022/11/19 16:32:03;;;;;;;;;;;-0.10;99.90;;;;;;12614278;28;19935;-39
2022/11/19 16:38:09;;;;;;;;;;;-0.30;99.90;;;;;;12619196;28;20303;-38
2022/11/19 16:44:13;;;;;;;;;;;-0.30;99.90;;;;;;12614329;28;19954;-38
2022/11/19 16:50:26;;;;;;;;;;;-0.40;99.90;;;;;;12596102;28;19925;-38
2022/11/19 16:56:31;;;;;;;;;;;-0.30;99.90;;;;;;12617870;28;19929;-38
2022/11/19 17:02:37;;;;;;;;;;;-0.30;99.90;;;;;;12616743;28;20084;-38
2022/11/19 17:08:39;;;;;;;;;;;-0.50;99.90;;;;;;12592856;28;19932;-38
2022/11/19 17:14:46;;;;;;;;;;;-0.50;99.90;;;;;;12624117;28;19924;-38
2022/11/19 17:20:49;;;;;;;;;;;-0.50;99.90;;;;;;12612566;28;19935;-38
2022/11/19 17:26:51;;;;;;;;;;;-0.70;99.90;;;;;;12626489;28;19932;-38
2022/11/19 17:32:57;;;;;;;;;;;-0.70;99.90;;;;;;12614866;28;19963;-39
2022/11/19 17:38:59;;;;;;;;;;;-0.60;99.90;;;;;;12609462;28;19924;-38
2022/11/19 17:45:00;;;;;;;;;;;-0.50;99.90;;;;;;12595619;28;19932;-38
2022/11/19 17:51:11;;;;;;;;;;;-0.40;99.90;;;;;;12610855;28;19973;-38
2022/11/19 17:57:13;;;;;;;;;;;-0.60;99.90;;;;;;12608114;28;19928;-38
2022/11/19 18:03:16;;;;;;;;;;;-0.70;99.90;;;;;;12591564;28;19924;-38
2022/11/19 18:09:18;;;;;;;;;;;-0.80;99.90;;;;;;12609391;28;19936;-38
2022/11/19 18:15:20;;;;;;;;;;;-1.00;99.90;;;;;;12614022;28;19932;-38
2022/11/19 18:21:22;;;;;;;;;;;-1.20;99.90;;;;;;12608518;28;20268;-38
2022/11/19 18:27:23;;;;;;;;;;;-1.30;99.90;;;;;;12619268;28;19963;-38
2022/11/19 18:33:25;;;;;;;;;;;-1.10;99.90;;;;;;12614765;28;20276;-38
2022/11/19 18:39:27;;;;;;;;;;;-1.10;99.90;;;;;;12611249;28;19972;-39
2022/11/19 18:45:29;;;;;;;;;;;-1.00;99.90;;;;;;12606916;28;19924;-38
2022/11/19 18:51:31;;;;;;;;;;;-1.10;99.90;;;;;;12617155;28;20689;-39
2022/11/19 18:57:33;;;;;;;;;;;-1.20;99.90;;;;;;12609958;28;19935;-39
2022/11/19 19:03:34;;;;;;;;;;;-1.30;99.90;;;;;;12601534;28;20291;-38
2022/11/19 19:09:36;;;;;;;;;;;-1.40;99.90;;;;;;12624838;28;19930;-39
2022/11/19 19:15:38;;;;;;;;;;;-1.50;99.90;;;;;;12610977;28;21538;-38
2022/11/19 19:21:40;;;;;;;;;;;-1.30;99.90;;;;;;12608732;28;20279;-38
2022/11/19 19:27:41;;;;;;;;;;;-1.30;99.90;;;;;;12593551;28;20019;-39
2022/11/19 19:33:45;;;;;;;;;;;-1.50;99.90;;;;;;12619483;28;19928;-38
2022/11/19 19:39:46;;;;;;;;;;;-1.30;99.90;;;;;;12613200;28;19971;-38
2022/11/19 19:45:48;;;;;;;;;;;-1.30;99.90;;;;;;12614413;28;19924;-38
2022/11/19 19:51:50;;;;;;;;;;;-1.20;99.90;;;;;;12621891;28;19931;-38
2022/11/19 19:57:52;;;;;;;;;;;-1.40;99.90;;;;;;12617480;28;19947;-38
2022/11/19 20:03:59;;;;;;;;;;;-1.50;99.90;;;;;;12613907;28;20337;-38
2022/11/19 20:10:00;;;;;;;;;;;-1.70;99.90;;;;;;12625970;28;19938;-38
2022/11/19 20:16:05;;;;;;;;;;;-1.80;99.90;;;;;;12623133;28;19938;-38
2022/11/19 20:22:08;;;;;;;;;;;-1.80;99.90;;;;;;12613365;28;19924;-38
2022/11/19 20:28:10;;;;;;;;;;;-2.00;99.90;;;;;;12610718;28;19924;-39
2022/11/19 20:34:12;;;;;;;;;;;-2.20;99.90;;;;;;12613393;28;19932;-38
2022/11/19 20:40:14;;;;;;;;;;;-2.00;99.90;;;;;;12609269;28;20089;-38
2022/11/19 20:46:18;;;;;;;;;;;-2.40;99.90;;;;;;12608769;28;19924;-38
2022/11/19 20:52:21;;;;;;;;;;;-2.20;99.90;;;;;;12607896;28;19928;-38
2022/11/19 20:58:23;;;;;;;;;;;-1.90;99.90;;;;;;12598711;28;19924;-38
2022/11/19 21:04:26;;;;;;;;;;;-1.90;99.90;;;;;;12580250;28;19928;-39
2022/11/19 21:10:27;;;;;;;;;;;-1.80;99.90;;;;;;12630354;28;19932;-38
2022/11/19 21:16:30;;;;;;;;;;;-1.60;99.90;;;;;;12621444;28;19935;-39
2022/11/19 21:22:32;;;;;;;;;;;-1.70;99.90;;;;;;12584846;28;20372;-39
2022/11/19 21:28:33;;;;;;;;;;;-1.90;99.90;;;;;;12605770;28;19932;-38
2022/11/19 21:34:35;;;;;;;;;;;-2.00;99.90;;;;;;12580874;28;19924;-38
2022/11/19 21:40:38;;;;;;;;;;;-2.00;99.90;;;;;;12601545;28;20308;-38
2022/11/19 21:46:39;;;;;;;;;;;-2.20;99.90;;;;;;12618620;28;19928;-39
2022/11/19 21:52:41;;;;;;;;;;;-2.50;99.90;;;;;;12593834;28;19931;-38
2022/11/19 21:58:43;;;;;;;;;;;-2.50;99.90;;;;;;12598395;28;19932;-38
2022/11/19 22:04:44;;;;;;;;;;;-2.60;99.90;;;;;;12612151;28;19963;-38
2022/11/19 22:10:47;;;;;;;;;;;-2.40;99.90;;;;;;12607643;28;19924;-38
2022/11/19 22:16:50;;;;;;;;;;;-2.30;99.90;;;;;;12613458;28;19929;-39
2022/11/19 22:22:52;;;;;;;;;;;-2.10;99.90;;;;;;12610428;28;19924;-38
2022/11/19 22:28:54;;;;;;;;;;;-2.30;99.90;;;;;;12612021;28;19928;-38
2022/11/19 22:34:56;;;;;;;;;;;-2.10;99.90;;;;;;12601829;28;19924;-39
2022/11/19 22:41:06;;;;;;;;;;;-2.20;99.90;;;;;;12612451;28;19931;-38
2022/11/19 22:47:08;;;;;;;;;;;-2.20;99.90;;;;;;12602841;28;20428;-38
2022/11/19 22:53:10;;;;;;;;;;;-2.40;99.90;;;;;;12611764;28;19924;-38
2022/11/19 22:59:12;;;;;;;;;;;-2.50;99.90;;;;;;12605296;28;19928;-38
2022/11/19 23:05:13;;;;;;;;;;;-2.70;99.90;;;;;;12611956;28;19925;-38
2022/11/19 23:13:30;;;;;;;;;;;-2.70;99.90;;;;;;12607960;28;20010;-38
2022/11/19 23:17:42;;;;;;;;;;;-2.70;99.90;;;;;;12608201;28;19928;-38
2022/11/19 23:23:44;;;;;;;;;;;-2.60;99.90;;;;;;12621939;28;19925;-38
2022/11/19 23:29:46;;;;;;;;;;;-2.30;99.90;;;;;;12619047;28;19988;-38
2022/11/19 23:35:47;;;;;;;;;;;-2.60;99.90;;;;;;12610574;28;19932;-38
2022/11/19 23:41:49;;;;;;;;;;;-2.50;99.90;;;;;;12615715;28;19940;-38
2022/11/19 23:47:51;;;;;;;;;;;-2.70;99.90;;;;;;12613411;28;19928;-38
2022/11/19 23:53:53;;;;;;;;;;;-2.50;99.90;;;;;;12619395;28;19970;-38
2022/11/19 23:59:55;;;;;;;;;;;-2.50;99.90;;;;;;12609926;28;19932;-38
